sensor_id;sensor_type;location;lat;lon;timestamp;P1;durP1;ratioP1;P2;durP2;ratioP2
6902;SDS011;20232;49.408;8.702;2023-07-31T04:02:18;5.53;;;2.60;;
6902;SDS011;20232;49.408;8.702;2023-07-31T04:04:44;5.77;;;2.63;;
6902;SDS011;20232;49.408;8.702;2023-07-31T04:07:09;3.13;;;2.40;;
6902;SDS011;20232;49.408;8.702;2023-07-31T04:09:35;5.83;;;3.03;;
6902;SDS011;20232;49.408;8.702;2023-07-31T04:12:00;5.10;;;2.73;;
6902;SDS011;20232;49.408;8.702;2023-07-31T04:14:25;5.70;;;2.90;;
6902;SDS011;20232;49.408;8.702;2023-07-31T04:16:51;5.07;;;2.23;;
6902;SDS011;20232;49.408;8.702;2023-07-31T04:19:17;5.97;;;2.87;;
6902;SDS011;20232;49.408;8.702;2023-07-31T04:21:45;4.63;;;2.50;;
6902;SDS011;20232;49.408;8.702;2023-07-31T04:24:10;3.53;;;2.50;;
6902;SDS011;20232;49.408;8.702;2023-07-31T04:26:35;6.73;;;2.50;;
6902;SDS011;20232;49.408;8.702;2023-07-31T04:29:01;4.87;;;2.70;;
6902;SDS011;20232;49.408;8.702;2023-07-31T04:31:26;4.10;;;2.30;;
6902;SDS011;20232;49.408;8.702;2023-07-31T04:33:52;6.03;;;2.70;;
6902;SDS011;20232;49.408;8.702;2023-07-31T04:36:17;5.03;;;2.57;;
6902;SDS011;20232;49.408;8.702;2023-07-31T04:38:42;5.20;;;2.63;;
6902;SDS011;20232;49.408;8.702;2023-07-31T04:41:08;4.93;;;2.70;;
6902;SDS011;20232;49.408;8.702;2023-07-31T04:43:36;4.03;;;2.40;;
6902;SDS011;20232;49.408;8.702;2023-07-31T04:46:04;4.40;;;2.50;;
6902;SDS011;20232;49.408;8.702;2023-07-31T04:48:30;4.73;;;2.97;;
6902;SDS011;20232;49.408;8.702;2023-07-31T04:50:55;5.60;;;2.63;;
6902;SDS011;20232;49.408;8.702;2023-07-31T04:53:20;5.07;;;2.70;;
6902;SDS011;20232;49.408;8.702;2023-07-31T04:55:46;6.17;;;2.73;;
6902;SDS011;20232;49.408;8.702;2023-07-31T04:58:11;5.93;;;2.60;;
6902;SDS011;20232;49.408;8.702;2023-07-31T05:00:37;6.27;;;2.80;;
6902;SDS011;20232;49.408;8.702;2023-07-31T05:03:02;7.20;;;2.93;;
6902;SDS011;20232;49.408;8.702;2023-07-31T05:05:27;6.80;;;2.87;;
6902;SDS011;20232;49.408;8.702;2023-07-31T05:07:53;5.20;;;2.77;;
6902;SDS011;20232;49.408;8.702;2023-07-31T05:10:18;3.63;;;2.80;;
6902;SDS011;20232;49.408;8.702;2023-07-31T05:12:44;13.70;;;3.33;;
6902;SDS011;20232;49.408;8.702;2023-07-31T05:15:09;4.37;;;2.60;;
6902;SDS011;20232;49.408;8.702;2023-07-31T05:17:35;6.03;;;3.10;;
6902;SDS011;20232;49.408;8.702;2023-07-31T05:20:00;6.27;;;2.80;;
6902;SDS011;20232;49.408;8.702;2023-07-31T05:22:25;4.67;;;2.97;;
6902;SDS011;20232;49.408;8.702;2023-07-31T05:24:51;5.00;;;2.87;;
6902;SDS011;20232;49.408;8.702;2023-07-31T05:27:16;7.93;;;2.93;;
6902;SDS011;20232;49.408;8.702;2023-07-31T05:29:43;4.93;;;2.90;;
6902;SDS011;20232;49.408;8.702;2023-07-31T05:32:09;6.73;;;2.80;;
6902;SDS011;20232;49.408;8.702;2023-07-31T05:34:38;4.30;;;2.83;;
6902;SDS011;20232;49.408;8.702;2023-07-31T05:37:03;7.30;;;2.60;;
6902;SDS011;20232;49.408;8.702;2023-07-31T05:39:29;3.63;;;2.47;;
6902;SDS011;20232;49.408;8.702;2023-07-31T05:41:54;7.27;;;3.07;;
6902;SDS011;20232;49.408;8.702;2023-07-31T05:44:20;4.03;;;2.73;;
6902;SDS011;20232;49.408;8.702;2023-07-31T05:46:45;4.77;;;2.50;;
6902;SDS011;20232;49.408;8.702;2023-07-31T05:49:10;4.17;;;2.80;;
6902;SDS011;20232;49.408;8.702;2023-07-31T05:51:36;8.80;;;3.17;;
6902;SDS011;20232;49.408;8.702;2023-07-31T05:54:01;5.07;;;3.00;;
6902;SDS011;20232;49.408;8.702;2023-07-31T05:56:27;5.00;;;2.50;;
6902;SDS011;20232;49.408;8.702;2023-07-31T05:58:56;6.80;;;3.00;;
6902;SDS011;20232;49.408;8.702;2023-07-31T06:01:22;5.00;;;2.47;;
6902;SDS011;20232;49.408;8.702;2023-07-31T06:03:47;5.97;;;2.90;;
6902;SDS011;20232;49.408;8.702;2023-07-31T06:06:13;4.43;;;2.40;;
6902;SDS011;20232;49.408;8.702;2023-07-31T06:08:39;4.10;;;2.53;;
6902;SDS011;20232;49.408;8.702;2023-07-31T06:11:05;5.83;;;2.63;;
6902;SDS011;20232;49.408;8.702;2023-07-31T06:13:30;4.90;;;2.77;;
6902;SDS011;20232;49.408;8.702;2023-07-31T06:15:56;7.50;;;3.00;;
6902;SDS011;20232;49.408;8.702;2023-07-31T06:18:21;4.30;;;2.40;;
6902;SDS011;20232;49.408;8.702;2023-07-31T06:20:47;7.03;;;3.20;;
6902;SDS011;20232;49.408;8.702;2023-07-31T06:23:12;5.97;;;2.63;;
6902;SDS011;20232;49.408;8.702;2023-07-31T06:25:38;5.70;;;2.70;;
6902;SDS011;20232;49.408;8.702;2023-07-31T06:28:03;6.20;;;3.07;;
6902;SDS011;20232;49.408;8.702;2023-07-31T06:30:28;5.60;;;2.60;;
6902;SDS011;20232;49.408;8.702;2023-07-31T06:32:54;5.37;;;2.80;;
6902;SDS011;20232;49.408;8.702;2023-07-31T06:35:19;4.40;;;2.60;;
6902;SDS011;20232;49.408;8.702;2023-07-31T06:37:45;5.33;;;2.57;;
6902;SDS011;20232;49.408;8.702;2023-07-31T06:40:10;3.07;;;2.30;;
6902;SDS011;20232;49.408;8.702;2023-07-31T06:42:36;5.17;;;2.40;;
6902;SDS011;20232;49.408;8.702;2023-07-31T06:45:02;5.57;;;2.63;;
6902;SDS011;20232;49.408;8.702;2023-07-31T06:47:27;4.77;;;2.60;;
6902;SDS011;20232;49.408;8.702;2023-07-31T06:49:53;8.63;;;3.00;;
6902;SDS011;20232;49.408;8.702;2023-07-31T06:52:21;5.43;;;2.60;;
6902;SDS011;20232;49.408;8.702;2023-07-31T06:54:59;6.33;;;2.70;;
6902;SDS011;20232;49.408;8.702;2023-07-31T06:57:26;5.30;;;3.03;;
6902;SDS011;20232;49.408;8.702;2023-07-31T06:59:52;6.97;;;2.67;;
6902;SDS011;20232;49.408;8.702;2023-07-31T07:02:17;5.90;;;2.50;;
6902;SDS011;20232;49.408;8.702;2023-07-31T07:04:42;5.90;;;2.83;;
6902;SDS011;20232;49.408;8.702;2023-07-31T07:07:08;7.80;;;3.17;;
6902;SDS011;20232;49.408;8.702;2023-07-31T07:09:33;6.77;;;2.97;;
6902;SDS011;20232;49.408;8.702;2023-07-31T07:11:58;7.23;;;3.07;;
6902;SDS011;20232;49.408;8.702;2023-07-31T07:14:24;6.50;;;2.80;;
6902;SDS011;20232;49.408;8.702;2023-07-31T07:16:52;8.83;;;3.00;;
6902;SDS011;20232;49.408;8.702;2023-07-31T07:19:18;5.70;;;2.90;;
6902;SDS011;20232;49.408;8.702;2023-07-31T07:21:43;4.13;;;2.70;;
6902;SDS011;20232;49.408;8.702;2023-07-31T07:24:09;6.67;;;2.90;;
6902;SDS011;20232;49.408;8.702;2023-07-31T07:26:34;6.03;;;2.93;;
6902;SDS011;20232;49.408;8.702;2023-07-31T07:29:00;4.10;;;2.50;;
6902;SDS011;20232;49.408;8.702;2023-07-31T07:31:27;7.37;;;2.83;;
6902;SDS011;20232;49.408;8.702;2023-07-31T07:33:53;7.47;;;2.93;;
6902;SDS011;20232;49.408;8.702;2023-07-31T07:36:18;4.87;;;2.80;;
6902;SDS011;20232;49.408;8.702;2023-07-31T07:38:44;7.53;;;3.07;;
6902;SDS011;20232;49.408;8.702;2023-07-31T07:41:09;5.20;;;2.93;;
6902;SDS011;20232;49.408;8.702;2023-07-31T07:43:35;4.67;;;2.53;;
6902;SDS011;20232;49.408;8.702;2023-07-31T07:46:00;7.80;;;2.60;;
6902;SDS011;20232;49.408;8.702;2023-07-31T07:48:25;5.53;;;2.70;;
6902;SDS011;20232;49.408;8.702;2023-07-31T07:50:51;4.67;;;2.67;;
6902;SDS011;20232;49.408;8.702;2023-07-31T07:53:16;5.20;;;2.60;;
6902;SDS011;20232;49.408;8.702;2023-07-31T07:55:42;6.27;;;3.00;;
6902;SDS011;20232;49.408;8.702;2023-07-31T07:58:07;6.40;;;3.00;;
6902;SDS011;20232;49.408;8.702;2023-07-31T08:00:33;6.33;;;2.90;;
6902;SDS011;20232;49.408;8.702;2023-07-31T08:02:58;8.07;;;2.97;;
6902;SDS011;20232;49.408;8.702;2023-07-31T08:05:24;5.23;;;2.80;;
6902;SDS011;20232;49.408;8.702;2023-07-31T08:07:49;5.93;;;2.73;;
6902;SDS011;20232;49.408;8.702;2023-07-31T08:10:15;5.03;;;3.13;;
6902;SDS011;20232;49.408;8.702;2023-07-31T08:12:40;5.23;;;2.80;;
6902;SDS011;20232;49.408;8.702;2023-07-31T08:15:06;5.87;;;2.87;;
6902;SDS011;20232;49.408;8.702;2023-07-31T08:17:32;5.97;;;2.83;;
6902;SDS011;20232;49.408;8.702;2023-07-31T08:19:57;8.37;;;2.90;;
6902;SDS011;20232;49.408;8.702;2023-07-31T08:22:26;5.73;;;2.70;;
6902;SDS011;20232;49.408;8.702;2023-07-31T08:24:52;7.47;;;3.10;;
6902;SDS011;20232;49.408;8.702;2023-07-31T08:27:17;7.33;;;2.70;;
6902;SDS011;20232;49.408;8.702;2023-07-31T08:29:43;8.10;;;3.37;;
6902;SDS011;20232;49.408;8.702;2023-07-31T08:32:08;5.27;;;2.77;;
6902;SDS011;20232;49.408;8.702;2023-07-31T08:34:33;7.70;;;3.00;;
6902;SDS011;20232;49.408;8.702;2023-07-31T08:36:59;5.37;;;3.07;;
6902;SDS011;20232;49.408;8.702;2023-07-31T08:39:27;6.30;;;2.77;;
6902;SDS011;20232;49.408;8.702;2023-07-31T08:41:57;5.10;;;2.70;;
6902;SDS011;20232;49.408;8.702;2023-07-31T08:44:23;6.20;;;2.70;;
6902;SDS011;20232;49.408;8.702;2023-07-31T08:46:49;5.37;;;2.83;;
6902;SDS011;20232;49.408;8.702;2023-07-31T08:49:15;5.80;;;3.00;;
6902;SDS011;20232;49.408;8.702;2023-07-31T08:51:42;6.90;;;2.83;;
6902;SDS011;20232;49.408;8.702;2023-07-31T08:54:07;4.53;;;2.73;;
6902;SDS011;20232;49.408;8.702;2023-07-31T08:56:32;5.13;;;2.83;;
6902;SDS011;20232;49.408;8.702;2023-07-31T08:58:59;4.93;;;2.40;;
6902;SDS011;20232;49.408;8.702;2023-07-31T09:01:27;6.93;;;2.80;;
6902;SDS011;20232;49.408;8.702;2023-07-31T09:03:54;6.87;;;2.73;;
6902;SDS011;20232;49.408;8.702;2023-07-31T09:06:20;5.53;;;2.63;;
6902;SDS011;20232;49.408;8.702;2023-07-31T09:08:47;4.97;;;2.70;;
6902;SDS011;20232;49.408;8.702;2023-07-31T09:11:13;5.93;;;2.50;;
6902;SDS011;20232;49.408;8.702;2023-07-31T09:13:39;7.20;;;3.00;;
6902;SDS011;20232;49.408;8.702;2023-07-31T09:16:05;5.27;;;2.90;;
6902;SDS011;20232;49.408;8.702;2023-07-31T09:18:30;5.20;;;2.70;;
6902;SDS011;20232;49.408;8.702;2023-07-31T09:21:05;4.43;;;2.77;;
6902;SDS011;20232;49.408;8.702;2023-07-31T09:23:46;5.53;;;2.60;;
6902;SDS011;20232;49.408;8.702;2023-07-31T09:28:59;4.60;;;2.80;;
6902;SDS011;20232;49.408;8.702;2023-07-31T09:31:58;5.47;;;3.10;;
6902;SDS011;20232;49.408;8.702;2023-07-31T09:34:17;6.50;;;2.93;;
6902;SDS011;20232;49.408;8.702;2023-07-31T09:36:44;4.77;;;2.93;;
6902;SDS011;20232;49.408;8.702;2023-07-31T09:39:13;5.77;;;2.70;;
6902;SDS011;20232;49.408;8.702;2023-07-31T09:41:44;4.70;;;2.63;;
6902;SDS011;20232;49.408;8.702;2023-07-31T09:44:13;6.20;;;3.13;;
6902;SDS011;20232;49.408;8.702;2023-07-31T09:46:38;5.83;;;2.90;;
6902;SDS011;20232;49.408;8.702;2023-07-31T09:49:08;5.20;;;3.03;;
6902;SDS011;20232;49.408;8.702;2023-07-31T09:51:38;6.77;;;2.83;;
6902;SDS011;20232;49.408;8.702;2023-07-31T09:54:08;5.63;;;3.17;;
6902;SDS011;20232;49.408;8.702;2023-07-31T09:56:44;4.30;;;3.00;;
6902;SDS011;20232;49.408;8.702;2023-07-31T09:59:12;6.13;;;3.30;;
6902;SDS011;20232;49.408;8.702;2023-07-31T10:01:39;5.97;;;3.27;;
6902;SDS011;20232;49.408;8.702;2023-07-31T10:04:05;3.87;;;2.40;;
6902;SDS011;20232;49.408;8.702;2023-07-31T10:06:33;6.27;;;3.30;;
6902;SDS011;20232;49.408;8.702;2023-07-31T10:08:59;9.40;;;3.40;;
6902;SDS011;20232;49.408;8.702;2023-07-31T10:11:25;7.50;;;3.20;;
6902;SDS011;20232;49.408;8.702;2023-07-31T10:13:52;6.57;;;3.03;;
6902;SDS011;20232;49.408;8.702;2023-07-31T10:16:19;5.23;;;2.93;;
6902;SDS011;20232;49.408;8.702;2023-07-31T10:18:45;7.00;;;3.10;;
6902;SDS011;20232;49.408;8.702;2023-07-31T10:21:11;5.90;;;3.13;;
6902;SDS011;20232;49.408;8.702;2023-07-31T10:23:36;7.60;;;3.57;;
6902;SDS011;20232;49.408;8.702;2023-07-31T10:26:05;6.97;;;2.90;;
6902;SDS011;20232;49.408;8.702;2023-07-31T10:28:32;7.90;;;3.23;;
6902;SDS011;20232;49.408;8.702;2023-07-31T10:30:58;7.53;;;3.30;;
6902;SDS011;20232;49.408;8.702;2023-07-31T10:33:23;7.37;;;3.57;;
6902;SDS011;20232;49.408;8.702;2023-07-31T10:35:49;5.20;;;3.10;;
6902;SDS011;20232;49.408;8.702;2023-07-31T10:38:18;6.37;;;3.20;;
6902;SDS011;20232;49.408;8.702;2023-07-31T10:40:44;6.80;;;3.20;;
6902;SDS011;20232;49.408;8.702;2023-07-31T10:43:32;5.17;;;2.90;;
6902;SDS011;20232;49.408;8.702;2023-07-31T10:45:56;7.90;;;3.40;;
6902;SDS011;20232;49.408;8.702;2023-07-31T10:48:21;5.80;;;3.10;;
6902;SDS011;20232;49.408;8.702;2023-07-31T10:53:31;8.17;;;3.73;;
6902;SDS011;20232;49.408;8.702;2023-07-31T10:56:00;5.63;;;3.03;;
6902;SDS011;20232;49.408;8.702;2023-07-31T10:58:26;6.23;;;3.70;;
6902;SDS011;20232;49.408;8.702;2023-07-31T11:00:56;6.63;;;3.07;;
6902;SDS011;20232;49.408;8.702;2023-07-31T11:03:24;5.40;;;3.20;;
6902;SDS011;20232;49.408;8.702;2023-07-31T11:05:52;5.50;;;3.37;;
6902;SDS011;20232;49.408;8.702;2023-07-31T11:08:24;7.73;;;3.40;;
6902;SDS011;20232;49.408;8.702;2023-07-31T11:16:08;6.13;;;2.93;;
6902;SDS011;20232;49.408;8.702;2023-07-31T11:18:34;4.70;;;3.00;;
6902;SDS011;20232;49.408;8.702;2023-07-31T11:21:00;5.97;;;3.43;;
6902;SDS011;20232;49.408;8.702;2023-07-31T11:23:25;6.50;;;3.27;;
6902;SDS011;20232;49.408;8.702;2023-07-31T11:25:50;8.10;;;3.53;;
6902;SDS011;20232;49.408;8.702;2023-07-31T11:28:17;8.00;;;3.23;;
6902;SDS011;20232;49.408;8.702;2023-07-31T11:30:44;8.87;;;3.50;;
6902;SDS011;20232;49.408;8.702;2023-07-31T11:33:12;8.17;;;3.27;;
6902;SDS011;20232;49.408;8.702;2023-07-31T11:35:42;7.10;;;2.97;;
6902;SDS011;20232;49.408;8.702;2023-07-31T11:38:09;4.63;;;3.00;;
6902;SDS011;20232;49.408;8.702;2023-07-31T11:40:42;7.93;;;2.87;;
6902;SDS011;20232;49.408;8.702;2023-07-31T11:43:08;5.47;;;2.97;;
6902;SDS011;20232;49.408;8.702;2023-07-31T11:45:33;4.30;;;2.80;;
6902;SDS011;20232;49.408;8.702;2023-07-31T11:48:00;5.77;;;3.10;;
6902;SDS011;20232;49.408;8.702;2023-07-31T11:50:26;8.23;;;3.20;;
6902;SDS011;20232;49.408;8.702;2023-07-31T11:52:57;5.00;;;2.93;;
6902;SDS011;20232;49.408;8.702;2023-07-31T11:55:24;6.83;;;3.07;;
6902;SDS011;20232;49.408;8.702;2023-07-31T11:57:50;6.33;;;2.73;;
6902;SDS011;20232;49.408;8.702;2023-07-31T12:01:13;5.93;;;3.10;;
6902;SDS011;20232;49.408;8.702;2023-07-31T12:03:39;6.73;;;3.13;;
6902;SDS011;20232;49.408;8.702;2023-07-31T12:06:06;5.13;;;3.27;;
6902;SDS011;20232;49.408;8.702;2023-07-31T12:08:31;4.07;;;2.90;;
6902;SDS011;20232;49.408;8.702;2023-07-31T12:11:02;9.13;;;3.40;;
6902;SDS011;20232;49.408;8.702;2023-07-31T12:13:34;4.70;;;2.77;;
6902;SDS011;20232;49.408;8.702;2023-07-31T12:16:01;7.27;;;3.40;;
6902;SDS011;20232;49.408;8.702;2023-07-31T12:18:29;7.83;;;3.27;;
6902;SDS011;20232;49.408;8.702;2023-07-31T12:20:56;5.40;;;3.03;;
6902;SDS011;20232;49.408;8.702;2023-07-31T12:23:23;6.27;;;3.07;;
6902;SDS011;20232;49.408;8.702;2023-07-31T12:26:06;5.37;;;3.17;;
6902;SDS011;20232;49.408;8.702;2023-07-31T12:28:36;6.17;;;3.00;;
6902;SDS011;20232;49.408;8.702;2023-07-31T12:31:04;5.37;;;3.30;;
6902;SDS011;20232;49.408;8.702;2023-07-31T12:33:33;5.60;;;3.27;;
6902;SDS011;20232;49.408;8.702;2023-07-31T12:36:03;7.23;;;2.87;;
6902;SDS011;20232;49.408;8.702;2023-07-31T12:38:30;7.00;;;3.40;;
6902;SDS011;20232;49.408;8.702;2023-07-31T12:40:55;6.63;;;3.10;;
6902;SDS011;20232;49.408;8.702;2023-07-31T12:43:21;6.20;;;3.30;;
6902;SDS011;20232;49.408;8.702;2023-07-31T12:45:46;6.87;;;3.10;;
6902;SDS011;20232;49.408;8.702;2023-07-31T12:48:12;7.77;;;3.60;;
6902;SDS011;20232;49.408;8.702;2023-07-31T12:50:38;6.63;;;3.33;;
6902;SDS011;20232;49.408;8.702;2023-07-31T12:53:04;5.87;;;3.00;;
6902;SDS011;20232;49.408;8.702;2023-07-31T12:55:30;7.00;;;3.17;;
6902;SDS011;20232;49.408;8.702;2023-07-31T12:57:55;5.90;;;3.23;;
6902;SDS011;20232;49.408;8.702;2023-07-31T13:00:21;7.47;;;3.53;;
6902;SDS011;20232;49.408;8.702;2023-07-31T13:02:47;8.67;;;3.30;;
6902;SDS011;20232;49.408;8.702;2023-07-31T13:05:12;7.33;;;3.17;;
6902;SDS011;20232;49.408;8.702;2023-07-31T13:07:38;5.03;;;3.33;;
6902;SDS011;20232;49.408;8.702;2023-07-31T13:10:04;5.20;;;2.90;;
6902;SDS011;20232;49.408;8.702;2023-07-31T13:12:30;6.70;;;3.10;;
6902;SDS011;20232;49.408;8.702;2023-07-31T13:14:55;8.00;;;3.63;;
6902;SDS011;20232;49.408;8.702;2023-07-31T13:17:21;6.63;;;3.47;;
6902;SDS011;20232;49.408;8.702;2023-07-31T13:19:46;7.50;;;2.80;;
6902;SDS011;20232;49.408;8.702;2023-07-31T13:22:12;8.17;;;3.20;;
6902;SDS011;20232;49.408;8.702;2023-07-31T13:24:37;6.10;;;2.77;;
6902;SDS011;20232;49.408;8.702;2023-07-31T13:27:03;5.93;;;3.23;;
6902;SDS011;20232;49.408;8.702;2023-07-31T13:29:29;6.50;;;3.10;;
6902;SDS011;20232;49.408;8.702;2023-07-31T13:31:55;5.63;;;3.40;;
6902;SDS011;20232;49.408;8.702;2023-07-31T13:34:20;5.23;;;2.77;;
6902;SDS011;20232;49.408;8.702;2023-07-31T13:36:46;4.77;;;3.03;;
6902;SDS011;20232;49.408;8.702;2023-07-31T13:39:11;6.63;;;3.10;;
6902;SDS011;20232;49.408;8.702;2023-07-31T13:41:37;6.27;;;3.40;;
6902;SDS011;20232;49.408;8.702;2023-07-31T13:44:02;4.60;;;3.00;;
6902;SDS011;20232;49.408;8.702;2023-07-31T13:46:28;5.10;;;2.70;;
6902;SDS011;20232;49.408;8.702;2023-07-31T13:48:53;4.40;;;3.10;;
6902;SDS011;20232;49.408;8.702;2023-07-31T13:51:21;6.43;;;2.70;;
6902;SDS011;20232;49.408;8.702;2023-07-31T13:53:46;4.67;;;2.87;;
6902;SDS011;20232;49.408;8.702;2023-07-31T13:56:12;3.93;;;2.80;;
6902;SDS011;20232;49.408;8.702;2023-07-31T13:58:37;5.27;;;2.90;;
6902;SDS011;20232;49.408;8.702;2023-07-31T14:01:03;5.20;;;3.10;;
6902;SDS011;20232;49.408;8.702;2023-07-31T14:03:28;5.13;;;3.07;;
6902;SDS011;20232;49.408;8.702;2023-07-31T14:05:54;5.47;;;3.20;;
6902;SDS011;20232;49.408;8.702;2023-07-31T14:08:20;6.67;;;3.27;;
6902;SDS011;20232;49.408;8.702;2023-07-31T14:10:46;4.77;;;2.77;;
6902;SDS011;20232;49.408;8.702;2023-07-31T14:13:11;6.53;;;3.00;;
6902;SDS011;20232;49.408;8.702;2023-07-31T14:15:37;8.53;;;3.23;;
6902;SDS011;20232;49.408;8.702;2023-07-31T14:18:02;7.37;;;3.30;;
6902;SDS011;20232;49.408;8.702;2023-07-31T14:20:28;6.37;;;2.93;;
6902;SDS011;20232;49.408;8.702;2023-07-31T14:22:53;7.40;;;3.10;;
6902;SDS011;20232;49.408;8.702;2023-07-31T14:25:19;6.27;;;3.10;;
6902;SDS011;20232;49.408;8.702;2023-07-31T14:27:45;5.70;;;3.60;;
6902;SDS011;20232;49.408;8.702;2023-07-31T14:30:10;6.33;;;3.37;;
6902;SDS011;20232;49.408;8.702;2023-07-31T14:32:36;6.33;;;3.33;;
6902;SDS011;20232;49.408;8.702;2023-07-31T14:35:02;6.70;;;3.57;;
6902;SDS011;20232;49.408;8.702;2023-07-31T14:37:36;6.80;;;3.13;;
6902;SDS011;20232;49.408;8.702;2023-07-31T14:40:05;5.40;;;3.33;;
6902;SDS011;20232;49.408;8.702;2023-07-31T14:42:32;7.33;;;3.00;;
6902;SDS011;20232;49.408;8.702;2023-07-31T14:44:57;7.10;;;3.20;;
6902;SDS011;20232;49.408;8.702;2023-07-31T14:47:22;6.90;;;3.20;;
6902;SDS011;20232;49.408;8.702;2023-07-31T14:49:48;5.60;;;3.13;;
6902;SDS011;20232;49.408;8.702;2023-07-31T14:52:14;5.53;;;3.17;;
6902;SDS011;20232;49.408;8.702;2023-07-31T14:54:39;4.53;;;2.97;;
6902;SDS011;20232;49.408;8.702;2023-07-31T14:57:05;5.13;;;3.27;;
6902;SDS011;20232;49.408;8.702;2023-07-31T14:59:30;5.97;;;3.27;;
6902;SDS011;20232;49.408;8.702;2023-07-31T15:01:56;5.97;;;3.00;;
6902;SDS011;20232;49.408;8.702;2023-07-31T15:04:21;7.80;;;3.50;;
6902;SDS011;20232;49.408;8.702;2023-07-31T15:06:47;5.57;;;3.13;;
6902;SDS011;20232;49.408;8.702;2023-07-31T15:09:12;5.67;;;3.00;;
6902;SDS011;20232;49.408;8.702;2023-07-31T15:11:38;6.53;;;2.70;;
6902;SDS011;20232;49.408;8.702;2023-07-31T15:14:03;8.07;;;3.40;;
6902;SDS011;20232;49.408;8.702;2023-07-31T15:16:29;4.60;;;2.70;;
6902;SDS011;20232;49.408;8.702;2023-07-31T15:18:56;5.03;;;3.10;;
6902;SDS011;20232;49.408;8.702;2023-07-31T15:21:22;5.97;;;2.90;;
6902;SDS011;20232;49.408;8.702;2023-07-31T15:23:47;4.77;;;2.80;;
6902;SDS011;20232;49.408;8.702;2023-07-31T15:26:13;4.70;;;2.83;;
6902;SDS011;20232;49.408;8.702;2023-07-31T15:28:38;4.93;;;3.00;;
6902;SDS011;20232;49.408;8.702;2023-07-31T15:31:04;5.83;;;2.93;;
6902;SDS011;20232;49.408;8.702;2023-07-31T15:33:29;5.93;;;3.07;;
6902;SDS011;20232;49.408;8.702;2023-07-31T15:35:55;4.93;;;3.17;;
6902;SDS011;20232;49.408;8.702;2023-07-31T15:38:23;4.60;;;2.80;;
6902;SDS011;20232;49.408;8.702;2023-07-31T15:40:49;5.73;;;3.10;;
6902;SDS011;20232;49.408;8.702;2023-07-31T15:43:15;5.73;;;3.13;;
6902;SDS011;20232;49.408;8.702;2023-07-31T15:45:41;5.20;;;3.07;;
6902;SDS011;20232;49.408;8.702;2023-07-31T15:48:06;4.17;;;3.00;;
6902;SDS011;20232;49.408;8.702;2023-07-31T15:50:32;7.53;;;3.20;;
6902;SDS011;20232;49.408;8.702;2023-07-31T15:52:57;5.33;;;3.10;;
6902;SDS011;20232;49.408;8.702;2023-07-31T15:55:22;4.40;;;3.27;;
6902;SDS011;20232;49.408;8.702;2023-07-31T15:57:49;6.10;;;3.00;;
6902;SDS011;20232;49.408;8.702;2023-07-31T16:00:15;6.43;;;3.23;;
6902;SDS011;20232;49.408;8.702;2023-07-31T16:02:41;4.40;;;3.30;;
6902;SDS011;20232;49.408;8.702;2023-07-31T16:05:06;5.90;;;3.10;;
6902;SDS011;20232;49.408;8.702;2023-07-31T16:07:32;8.30;;;3.20;;
6902;SDS011;20232;49.408;8.702;2023-07-31T16:09:57;4.43;;;2.80;;
6902;SDS011;20232;49.408;8.702;2023-07-31T16:12:23;4.60;;;2.90;;
6902;SDS011;20232;49.408;8.702;2023-07-31T16:14:48;5.43;;;3.10;;
6902;SDS011;20232;49.408;8.702;2023-07-31T16:17:13;7.00;;;3.27;;
6902;SDS011;20232;49.408;8.702;2023-07-31T16:19:39;6.17;;;2.90;;
6902;SDS011;20232;49.408;8.702;2023-07-31T16:22:04;4.87;;;3.30;;
6902;SDS011;20232;49.408;8.702;2023-07-31T16:24:30;6.17;;;3.30;;
6902;SDS011;20232;49.408;8.702;2023-07-31T16:26:55;5.93;;;3.37;;
6902;SDS011;20232;49.408;8.702;2023-07-31T16:29:21;6.07;;;3.37;;
6902;SDS011;20232;49.408;8.702;2023-07-31T16:31:46;6.73;;;3.47;;
6902;SDS011;20232;49.408;8.702;2023-07-31T16:34:11;5.80;;;3.27;;
6902;SDS011;20232;49.408;8.702;2023-07-31T16:36:37;6.00;;;3.23;;
6902;SDS011;20232;49.408;8.702;2023-07-31T16:39:02;7.60;;;3.53;;
6902;SDS011;20232;49.408;8.702;2023-07-31T16:41:28;4.53;;;3.20;;
6902;SDS011;20232;49.408;8.702;2023-07-31T16:43:53;6.40;;;3.60;;
6902;SDS011;20232;49.408;8.702;2023-07-31T16:46:18;5.20;;;3.30;;
6902;SDS011;20232;49.408;8.702;2023-07-31T16:48:44;5.43;;;3.30;;
6902;SDS011;20232;49.408;8.702;2023-07-31T16:51:09;7.27;;;3.43;;
6902;SDS011;20232;49.408;8.702;2023-07-31T16:53:35;4.73;;;3.00;;
6902;SDS011;20232;49.408;8.702;2023-07-31T16:56:00;7.27;;;3.10;;
6902;SDS011;20232;49.408;8.702;2023-07-31T16:58:27;5.90;;;3.67;;
6902;SDS011;20232;49.408;8.702;2023-07-31T17:00:52;6.23;;;3.70;;
6902;SDS011;20232;49.408;8.702;2023-07-31T17:03:17;10.30;;;4.13;;
6902;SDS011;20232;49.408;8.702;2023-07-31T17:05:43;15.47;;;6.27;;
6902;SDS011;20232;49.408;8.702;2023-07-31T17:08:08;8.80;;;4.20;;
6902;SDS011;20232;49.408;8.702;2023-07-31T17:10:34;9.10;;;3.87;;
6902;SDS011;20232;49.408;8.702;2023-07-31T17:12:59;6.57;;;3.50;;
6902;SDS011;20232;49.408;8.702;2023-07-31T17:15:25;7.43;;;3.83;;
6902;SDS011;20232;49.408;8.702;2023-07-31T17:17:51;7.77;;;4.93;;
6902;SDS011;20232;49.408;8.702;2023-07-31T17:20:18;7.37;;;3.60;;
6902;SDS011;20232;49.408;8.702;2023-07-31T17:22:43;7.00;;;3.77;;
6902;SDS011;20232;49.408;8.702;2023-07-31T17:25:09;7.40;;;3.70;;
6902;SDS011;20232;49.408;8.702;2023-07-31T17:27:35;8.70;;;4.20;;
6902;SDS011;20232;49.408;8.702;2023-07-31T17:30:00;6.03;;;4.00;;
6902;SDS011;20232;49.408;8.702;2023-07-31T17:32:26;7.30;;;4.20;;
6902;SDS011;20232;49.408;8.702;2023-07-31T17:34:51;6.97;;;4.07;;
6902;SDS011;20232;49.408;8.702;2023-07-31T17:37:17;7.47;;;4.40;;
6902;SDS011;20232;49.408;8.702;2023-07-31T17:39:42;6.90;;;4.00;;
6902;SDS011;20232;49.408;8.702;2023-07-31T17:42:08;6.63;;;4.17;;
6902;SDS011;20232;49.408;8.702;2023-07-31T17:44:33;11.13;;;4.20;;
6902;SDS011;20232;49.408;8.702;2023-07-31T17:46:59;6.47;;;4.20;;
6902;SDS011;20232;49.408;8.702;2023-07-31T17:49:25;8.57;;;4.50;;
6902;SDS011;20232;49.408;8.702;2023-07-31T17:51:50;8.50;;;4.87;;
6902;SDS011;20232;49.408;8.702;2023-07-31T17:54:16;8.47;;;4.50;;
6902;SDS011;20232;49.408;8.702;2023-07-31T17:56:41;9.07;;;4.90;;
6902;SDS011;20232;49.408;8.702;2023-07-31T17:59:07;10.47;;;5.10;;
6902;SDS011;20232;49.408;8.702;2023-07-31T18:01:32;6.03;;;4.23;;
6902;SDS011;20232;49.408;8.702;2023-07-31T18:03:58;6.63;;;4.50;;
6902;SDS011;20232;49.408;8.702;2023-07-31T18:06:23;9.47;;;4.10;;
6902;SDS011;20232;49.408;8.702;2023-07-31T18:08:49;8.03;;;4.77;;
6902;SDS011;20232;49.408;8.702;2023-07-31T18:11:14;11.93;;;6.80;;
6902;SDS011;20232;49.408;8.702;2023-07-31T18:13:40;7.13;;;4.13;;
6902;SDS011;20232;49.408;8.702;2023-07-31T18:16:05;8.70;;;4.50;;
6902;SDS011;20232;49.408;8.702;2023-07-31T18:18:31;9.13;;;5.00;;
6902;SDS011;20232;49.408;8.702;2023-07-31T18:20:56;6.30;;;4.20;;
6902;SDS011;20232;49.408;8.702;2023-07-31T18:23:23;7.83;;;5.03;;
6902;SDS011;20232;49.408;8.702;2023-07-31T18:25:49;5.73;;;3.87;;
6902;SDS011;20232;49.408;8.702;2023-07-31T18:28:14;7.27;;;4.73;;
6902;SDS011;20232;49.408;8.702;2023-07-31T18:30:40;6.23;;;4.33;;
6902;SDS011;20232;49.408;8.702;2023-07-31T18:33:05;7.70;;;4.33;;
6902;SDS011;20232;49.408;8.702;2023-07-31T18:35:31;6.60;;;4.27;;
6902;SDS011;20232;49.408;8.702;2023-07-31T18:37:56;8.77;;;4.40;;
6902;SDS011;20232;49.408;8.702;2023-07-31T18:40:21;8.50;;;4.63;;
6902;SDS011;20232;49.408;8.702;2023-07-31T18:42:47;6.73;;;4.23;;
6902;SDS011;20232;49.408;8.702;2023-07-31T18:45:12;6.13;;;3.97;;
6902;SDS011;20232;49.408;8.702;2023-07-31T18:47:38;7.33;;;4.50;;
6902;SDS011;20232;49.408;8.702;2023-07-31T18:50:03;6.43;;;4.80;;
6902;SDS011;20232;49.408;8.702;2023-07-31T18:52:30;8.20;;;5.07;;
6902;SDS011;20232;49.408;8.702;2023-07-31T18:54:56;9.63;;;5.90;;
6902;SDS011;20232;49.408;8.702;2023-07-31T18:57:21;9.13;;;5.80;;
6902;SDS011;20232;49.408;8.702;2023-07-31T18:59:47;9.70;;;5.33;;
6902;SDS011;20232;49.408;8.702;2023-07-31T19:02:13;8.03;;;4.77;;
6902;SDS011;20232;49.408;8.702;2023-07-31T19:04:38;7.63;;;4.70;;
6902;SDS011;20232;49.408;8.702;2023-07-31T19:07:03;6.07;;;4.27;;